createdAt,value
2023-04-25T00:03:06.483Z,3.10
2023-04-25T00:07:30.775Z,3.90
2023-04-25T00:11:55.919Z,4.20
2023-04-25T00:16:06.214Z,4.30
2023-04-25T00:20:12.083Z,4.00
2023-04-25T00:24:21.893Z,4.10
2023-04-25T00:28:19.365Z,3.30
2023-04-25T00:32:17.539Z,3.60
2023-04-25T00:36:24.094Z,3.60
2023-04-25T00:40:48.648Z,4.80
2023-04-25T00:45:20.897Z,4.20
2023-04-25T00:49:44.540Z,4.10
2023-04-25T00:53:58.149Z,4.40
2023-04-25T00:58:42.133Z,4.70
2023-04-25T01:03:21.537Z,4.40
2023-04-25T01:07:46.934Z,4.20
2023-04-25T01:11:51.236Z,3.80
2023-04-25T01:16:11.689Z,3.50
2023-04-25T01:20:15.846Z,2.60
2023-04-25T01:24:41.025Z,4.30
2023-04-25T01:29:05.339Z,3.50
2023-04-25T01:33:10.750Z,3.60
2023-04-25T01:37:15.562Z,2.30
2023-04-25T01:41:39.115Z,3.70
2023-04-25T01:46:11.302Z,3.00
2023-04-25T01:55:59.987Z,4.30
2023-04-25T02:00:19.725Z,4.00
2023-04-25T02:04:24.348Z,3.60
2023-04-25T02:08:40.275Z,2.60
2023-04-25T02:13:04.934Z,2.60
2023-04-25T02:17:49.106Z,3.50
2023-04-25T02:22:28.265Z,2.40
2023-04-25T02:27:13.838Z,3.40
2023-04-25T02:31:21.312Z,3.50
2023-04-25T02:35:29.362Z,4.10
2023-04-25T02:40:01.482Z,1.90
2023-04-25T02:44:41.657Z,2.40
2023-04-25T02:49:07.791Z,3.00
2023-04-25T02:53:32.666Z,2.30
2023-04-25T02:58:19.936Z,3.00
2023-04-25T03:02:10.848Z,3.20
2023-04-25T03:06:41.972Z,3.80
2023-04-25T03:10:50.947Z,2.20
2023-04-25T03:15:11.469Z,3.70
2023-04-25T03:19:51.922Z,2.00
2023-04-25T03:24:04.143Z,3.20
2023-04-25T03:28:30.764Z,2.50
2023-04-25T03:33:05.991Z,2.50
2023-04-25T03:37:14.066Z,2.50
2023-04-25T03:41:38.767Z,2.70
2023-04-25T03:45:44.098Z,2.40
2023-04-25T03:50:11.568Z,2.30
2023-04-25T03:54:45.672Z,2.20
2023-04-25T03:59:12.835Z,3.30
2023-04-25T04:03:26.283Z,3.20
2023-04-25T04:07:35.211Z,2.70
2023-04-25T04:11:47.515Z,1.60
2023-04-25T04:15:55.347Z,2.60
2023-04-25T04:24:47.154Z,2.20
2023-04-25T04:29:13.572Z,3.30
2023-04-25T04:33:28.074Z,5.00
2023-04-25T04:37:59.449Z,5.00
2023-04-25T04:42:09.214Z,4.00
2023-04-25T04:46:36.608Z,2.50
2023-04-25T04:51:04.688Z,7.40
2023-04-25T04:55:29.945Z,6.90
2023-04-25T05:00:05.607Z,4.30
2023-04-25T05:04:13.850Z,4.20
2023-04-25T05:08:57.901Z,2.60
2023-04-25T05:13:20.834Z,4.40
2023-04-25T05:17:41.127Z,3.70
2023-04-25T05:22:16.754Z,4.00
2023-04-25T05:26:35.030Z,3.30
2023-04-25T05:30:39.737Z,3.90
2023-04-25T05:34:45.200Z,3.50
2023-04-25T05:38:49.906Z,3.90
2023-04-25T05:43:05.830Z,3.50
2023-04-25T05:47:15.126Z,3.30
2023-04-25T05:51:23.449Z,3.50
2023-04-25T05:55:31.876Z,4.20
2023-04-25T05:59:45.491Z,5.20
2023-04-25T06:03:51.386Z,5.30
2023-04-25T06:08:00.732Z,6.20
2023-04-25T06:12:06.446Z,10.00
2023-04-25T06:16:21.167Z,4.10
2023-04-25T06:20:53.371Z,4.10
2023-04-25T06:25:08.489Z,4.00
2023-04-25T06:29:20.380Z,5.00
2023-04-25T06:33:23.995Z,4.20
2023-04-25T06:36:58.502Z,3.50
2023-04-25T06:41:07.213Z,5.00
2023-04-25T06:45:16.994Z,4.10
2023-04-25T06:49:10.021Z,3.90
2023-04-25T06:53:23.822Z,3.60
2023-04-25T06:57:28.948Z,3.70
2023-04-25T07:01:30.312Z,3.80
2023-04-25T07:05:19.598Z,3.40
2023-04-25T07:09:00.708Z,3.90
2023-04-25T07:12:52.628Z,4.20
2023-04-25T07:16:28.660Z,4.10
2023-04-25T07:20:11.450Z,3.50
2023-04-25T07:23:45.719Z,3.30
2023-04-25T07:27:09.894Z,4.30
2023-04-25T07:30:36.135Z,3.00
2023-04-25T07:34:18.746Z,4.20
2023-04-25T07:37:48.771Z,3.60
2023-04-25T07:41:14.097Z,2.90
2023-04-25T07:44:44.521Z,3.70
2023-04-25T07:48:17.876Z,3.30
2023-04-25T07:51:46.276Z,3.70
2023-04-25T07:55:09.646Z,3.40
2023-04-25T07:58:31.434Z,4.80
2023-04-25T08:01:54.549Z,3.10
2023-04-25T08:05:23.055Z,3.50
2023-04-25T08:08:40.906Z,2.40
2023-04-25T08:12:46.317Z,3.00
2023-04-25T08:16:11.289Z,2.20
2023-04-25T08:19:41.339Z,2.20
2023-04-25T08:23:08.557Z,3.00
2023-04-25T08:26:45.149Z,2.90
2023-04-25T08:30:14.322Z,3.60
2023-04-25T08:33:40.053Z,3.00
2023-04-25T08:37:08.475Z,2.30
2023-04-25T08:40:37.337Z,3.50
2023-04-25T08:44:12.473Z,3.60
2023-04-25T08:47:37.640Z,3.20
2023-04-25T08:51:18.599Z,2.50
2023-04-25T08:54:37.230Z,3.20
2023-04-25T08:58:12.014Z,3.70
2023-04-25T09:01:48.689Z,3.10
2023-04-25T09:05:16.676Z,3.20
2023-04-25T09:08:51.314Z,3.50
2023-04-25T09:12:23.013Z,2.70
2023-04-25T09:15:54.324Z,3.00
2023-04-25T09:19:40.367Z,3.10
2023-04-25T09:23:10.466Z,2.80
2023-04-25T09:26:34.691Z,3.30
2023-04-25T09:30:03.781Z,3.60
2023-04-25T09:33:36.922Z,2.40
2023-04-25T09:37:03.485Z,2.50
2023-04-25T09:40:29.368Z,2.60
2023-04-25T09:44:01.753Z,3.00
2023-04-25T09:48:02.259Z,2.40
2023-04-25T09:51:43.312Z,2.30
2023-04-25T09:55:11.510Z,2.40
2023-04-25T10:02:53.254Z,2.10
2023-04-25T10:06:46.361Z,2.40
2023-04-25T10:10:37.764Z,2.40
2023-04-25T10:17:37.347Z,1.70
2023-04-25T10:21:09.583Z,2.90
2023-04-25T10:24:38.289Z,3.50
2023-04-25T10:28:18.995Z,2.40
2023-04-25T10:32:00.134Z,2.30
2023-04-25T10:35:32.757Z,2.50
2023-04-25T10:39:22.403Z,3.30
2023-04-25T10:43:03.582Z,3.40
2023-04-25T10:46:40.000Z,3.00
2023-04-25T10:50:23.726Z,3.30
2023-04-25T10:54:00.236Z,2.70
2023-04-25T10:57:32.420Z,2.30
2023-04-25T11:00:57.895Z,3.20
2023-04-25T11:04:42.655Z,2.30
2023-04-25T11:08:19.837Z,3.20
2023-04-25T11:11:55.298Z,2.70
2023-04-25T11:15:24.396Z,2.90
2023-04-25T11:18:59.233Z,2.80
2023-04-25T11:22:36.213Z,2.70
2023-04-25T11:26:06.381Z,2.70
2023-04-25T11:29:50.964Z,3.20
2023-04-25T11:33:18.024Z,3.20
2023-04-25T11:36:58.543Z,3.40
2023-04-25T11:40:28.186Z,3.50
2023-04-25T11:43:55.983Z,3.10
2023-04-25T11:47:29.363Z,3.80
2023-04-25T11:51:14.970Z,3.30
2023-04-25T11:54:59.035Z,3.40
2023-04-25T11:58:27.565Z,3.60
2023-04-25T12:02:15.908Z,3.10
2023-04-25T12:05:42.755Z,2.40
2023-04-25T12:09:29.775Z,2.60
2023-04-25T12:17:16.295Z,3.10
2023-04-25T12:20:40.142Z,3.00
2023-04-25T12:24:43.931Z,3.00
2023-04-25T12:28:55.836Z,2.80
2023-04-25T12:32:35.731Z,3.30
2023-04-25T12:36:12.101Z,3.00
2023-04-25T12:39:44.294Z,3.60
2023-04-25T12:43:10.037Z,2.90
2023-04-25T12:53:02.332Z,3.80
2023-04-25T12:56:31.736Z,4.20
2023-04-25T12:59:55.751Z,4.00
2023-04-25T13:03:25.337Z,3.70
2023-04-25T13:06:53.216Z,3.30
2023-04-25T13:10:22.905Z,3.40
2023-04-25T13:13:47.675Z,3.50
2023-04-25T13:17:15.206Z,2.80
2023-04-25T13:20:56.553Z,3.20
2023-04-25T13:24:22.902Z,3.90
2023-04-25T13:27:58.273Z,3.40
2023-04-25T13:31:22.299Z,3.60
2023-04-25T13:34:46.939Z,3.30
2023-04-25T13:38:24.933Z,3.50
2023-04-25T13:41:54.099Z,3.50
2023-04-25T13:45:37.158Z,4.00
2023-04-25T13:49:11.584Z,3.50
2023-04-25T13:52:38.693Z,4.20
2023-04-25T13:56:10.274Z,3.60
2023-04-25T13:59:44.393Z,3.80
2023-04-25T14:03:23.668Z,3.50
2023-04-25T14:06:50.585Z,3.80
2023-04-25T14:10:17.427Z,4.10
2023-04-25T14:13:43.099Z,4.00
2023-04-25T14:17:14.199Z,3.80
2023-04-25T14:20:42.302Z,4.20
2023-04-25T14:24:27.946Z,4.40
2023-04-25T14:27:57.569Z,4.50
2023-04-25T14:31:30.916Z,4.30
2023-04-25T14:35:17.869Z,4.30
2023-04-25T14:38:43.046Z,3.30
2023-04-25T14:42:08.318Z,4.10
2023-04-25T14:45:32.954Z,4.30
2023-04-25T14:49:04.042Z,3.00
2023-04-25T14:52:47.344Z,3.90
2023-04-25T14:56:17.918Z,4.10
2023-04-25T14:59:42.792Z,4.20
2023-04-25T15:03:12.574Z,4.10
2023-04-25T15:06:48.852Z,3.90
2023-04-25T15:10:17.499Z,4.60
2023-04-25T15:13:46.228Z,4.10
2023-04-25T15:23:29.815Z,4.80
2023-04-25T15:26:56.375Z,4.10
2023-04-25T15:30:44.800Z,3.90
2023-04-25T15:34:42.467Z,4.60
2023-04-25T15:38:09.324Z,4.60
2023-04-25T15:41:42.659Z,4.80
2023-04-25T15:45:08.983Z,4.20
2023-04-25T15:48:45.628Z,3.90
2023-04-25T15:52:59.034Z,4.20
2023-04-25T15:57:16.210Z,4.00
2023-04-25T16:01:40.645Z,4.80
2023-04-25T16:06:00.431Z,6.50
2023-04-25T16:09:50.870Z,3.60
2023-04-25T16:17:44.160Z,6.20
2023-04-25T16:21:49.903Z,5.50
2023-04-25T16:26:34.507Z,3.40
2023-04-25T16:30:54.350Z,8.00
2023-04-25T16:35:11.170Z,7.60
2023-04-25T16:39:32.088Z,6.30
2023-04-25T16:43:48.421Z,13.30
2023-04-25T16:48:32.803Z,3.40
2023-04-25T16:52:36.813Z,6.50
2023-04-25T16:56:36.704Z,5.50
2023-04-25T17:01:16.984Z,5.20
2023-04-25T17:06:01.865Z,3.20
2023-04-25T17:10:09.641Z,6.10
2023-04-25T17:14:55.137Z,8.80
2023-04-25T17:19:08.608Z,7.40
2023-04-25T17:23:53.129Z,6.80
2023-04-25T17:27:57.291Z,7.30
2023-04-25T17:32:05.734Z,8.10
2023-04-25T17:36:45.176Z,9.30
2023-04-25T17:40:53.894Z,8.50
2023-04-25T17:44:49.081Z,7.20
2023-04-25T17:49:12.752Z,9.00
2023-04-25T17:53:17.598Z,8.90
2023-04-25T17:58:01.956Z,8.20
2023-04-25T18:02:28.449Z,7.30
2023-04-25T18:07:03.759Z,6.30
2023-04-25T18:15:53.118Z,7.80
2023-04-25T18:20:29.853Z,8.20
2023-04-25T18:24:41.022Z,10.20
2023-04-25T18:29:16.306Z,9.60
2023-04-25T18:33:33.177Z,12.90
2023-04-25T18:38:02.535Z,9.10
2023-04-25T18:46:18.719Z,13.10
2023-04-25T18:50:48.050Z,15.50
2023-04-25T18:54:52.869Z,14.10
2023-04-25T18:59:35.555Z,10.90
2023-04-25T19:04:05.830Z,12.60
2023-04-25T19:08:19.385Z,11.30
2023-04-25T19:12:44.670Z,14.10
2023-04-25T19:17:22.525Z,19.50
2023-04-25T19:21:34.379Z,11.30
2023-04-25T19:25:58.376Z,14.80
2023-04-25T19:30:29.479Z,12.20
2023-04-25T19:34:42.354Z,11.90
2023-04-25T19:39:07.417Z,9.40
2023-04-25T19:43:13.460Z,11.20
2023-04-25T19:47:45.105Z,10.10
2023-04-25T19:52:17.569Z,9.80
2023-04-25T19:56:17.243Z,9.40
2023-04-25T20:00:30.417Z,8.40
2023-04-25T20:04:58.440Z,7.50
2023-04-25T20:09:22.956Z,8.30
2023-04-25T20:13:50.585Z,5.60
2023-04-25T20:18:03.053Z,3.70
2023-04-25T20:22:07.551Z,4.00
2023-04-25T20:26:35.225Z,4.30
2023-04-25T20:30:41.091Z,4.10
2023-04-25T20:35:23.398Z,4.60
2023-04-25T20:39:30.557Z,4.20
2023-04-25T20:43:54.449Z,3.60
2023-04-25T20:47:59.730Z,3.20
2023-04-25T20:52:43.381Z,3.80
2023-04-25T20:57:16.158Z,3.90
2023-04-25T21:01:22.609Z,4.40
2023-04-25T21:05:48.465Z,3.80
2023-04-25T21:10:33.046Z,4.00
2023-04-25T21:14:42.721Z,4.60
2023-04-25T21:19:28.619Z,4.30
2023-04-25T21:23:54.808Z,4.70
2023-04-25T21:28:27.214Z,5.70
2023-04-25T21:36:59.869Z,3.20
2023-04-25T21:41:47.988Z,2.70
2023-04-25T21:50:58.011Z,4.10
2023-04-25T21:55:27.813Z,2.90
2023-04-25T21:59:52.843Z,3.20
2023-04-25T22:04:38.098Z,3.00
2023-04-25T22:09:22.260Z,3.10
2023-04-25T22:13:42.311Z,2.50
2023-04-25T22:18:27.039Z,3.50
2023-04-25T22:23:06.446Z,3.80
2023-04-25T22:27:50.708Z,3.80
2023-04-25T22:31:57.145Z,1.80
2023-04-25T22:36:21.696Z,4.30
2023-04-25T22:40:32.468Z,5.10
2023-04-25T22:44:54.636Z,3.10
2023-04-25T22:49:14.669Z,5.40
2023-04-25T22:53:55.188Z,2.40
2023-04-25T22:58:01.083Z,3.00
2023-04-25T23:02:09.599Z,3.30
2023-04-25T23:06:49.972Z,3.20
2023-04-25T23:11:29.626Z,3.60
2023-04-25T23:16:01.442Z,4.80
2023-04-25T23:20:06.279Z,4.20
2023-04-25T23:24:11.538Z,2.50
2023-04-25T23:28:35.576Z,3.10
2023-04-25T23:33:19.970Z,3.90
2023-04-25T23:46:31.611Z,3.10
2023-04-25T23:51:15.920Z,2.60
2023-04-25T23:56:00.212Z,2.10
